sensor_id;sensor_type;location;lat;lon;timestamp;P1;durP1;ratioP1;P2;durP2;ratioP2
47161;SDS011;32921;53.256;8.198;2022-07-12T00:00:53;4.50;;;2.80;;
47161;SDS011;32921;53.256;8.198;2022-07-12T00:03:19;4.65;;;2.75;;
47161;SDS011;32921;53.256;8.198;2022-07-12T00:05:52;5.50;;;2.50;;
47161;SDS011;32921;53.256;8.198;2022-07-12T00:08:19;6.05;;;2.78;;
47161;SDS011;32921;53.256;8.198;2022-07-12T00:10:44;4.28;;;2.58;;
47161;SDS011;32921;53.256;8.198;2022-07-12T00:13:10;4.13;;;2.17;;
47161;SDS011;32921;53.256;8.198;2022-07-12T00:15:36;3.45;;;2.22;;
47161;SDS011;32921;53.256;8.198;2022-07-12T00:18:01;4.90;;;2.03;;
47161;SDS011;32921;53.256;8.198;2022-07-12T00:20:28;4.72;;;2.17;;
47161;SDS011;32921;53.256;8.198;2022-07-12T00:22:54;3.28;;;2.10;;
47161;SDS011;32921;53.256;8.198;2022-07-12T00:25:20;4.00;;;2.10;;
47161;SDS011;32921;53.256;8.198;2022-07-12T00:27:46;2.50;;;1.80;;
47161;SDS011;32921;53.256;8.198;2022-07-12T00:30:11;4.95;;;2.10;;
47161;SDS011;32921;53.256;8.198;2022-07-12T00:32:37;3.28;;;1.85;;
47161;SDS011;32921;53.256;8.198;2022-07-12T00:35:03;2.10;;;1.90;;
47161;SDS011;32921;53.256;8.198;2022-07-12T00:37:30;4.05;;;2.10;;
47161;SDS011;32921;53.256;8.198;2022-07-12T00:39:56;3.40;;;2.20;;
47161;SDS011;32921;53.256;8.198;2022-07-12T00:42:22;3.83;;;1.95;;
47161;SDS011;32921;53.256;8.198;2022-07-12T00:44:48;2.50;;;1.80;;
47161;SDS011;32921;53.256;8.198;2022-07-12T00:47:18;2.58;;;1.90;;
47161;SDS011;32921;53.256;8.198;2022-07-12T00:50:07;3.97;;;1.80;;
47161;SDS011;32921;53.256;8.198;2022-07-12T00:52:35;5.35;;;2.40;;
47161;SDS011;32921;53.256;8.198;2022-07-12T00:55:04;3.45;;;1.83;;
47161;SDS011;32921;53.256;8.198;2022-07-12T00:57:34;5.38;;;3.10;;
47161;SDS011;32921;53.256;8.198;2022-07-12T01:00:00;3.05;;;2.03;;
47161;SDS011;32921;53.256;8.198;2022-07-12T01:03:02;2.67;;;1.95;;
47161;SDS011;32921;53.256;8.198;2022-07-12T01:05:28;4.20;;;2.17;;
47161;SDS011;32921;53.256;8.198;2022-07-12T01:07:55;2.97;;;1.65;;
47161;SDS011;32921;53.256;8.198;2022-07-12T01:10:21;3.80;;;2.10;;
47161;SDS011;32921;53.256;8.198;2022-07-12T01:12:47;3.28;;;2.03;;
47161;SDS011;32921;53.256;8.198;2022-07-12T01:15:14;2.33;;;1.85;;
47161;SDS011;32921;53.256;8.198;2022-07-12T01:17:40;3.67;;;2.28;;
47161;SDS011;32921;53.256;8.198;2022-07-12T01:20:08;3.55;;;2.08;;
47161;SDS011;32921;53.256;8.198;2022-07-12T01:22:35;3.47;;;2.40;;
47161;SDS011;32921;53.256;8.198;2022-07-12T01:25:02;2.63;;;2.00;;
47161;SDS011;32921;53.256;8.198;2022-07-12T01:27:29;5.75;;;2.10;;
47161;SDS011;32921;53.256;8.198;2022-07-12T01:29:55;3.42;;;2.10;;
47161;SDS011;32921;53.256;8.198;2022-07-12T01:32:22;3.90;;;2.25;;
47161;SDS011;32921;53.256;8.198;2022-07-12T01:34:58;3.25;;;2.50;;
47161;SDS011;32921;53.256;8.198;2022-07-12T01:37:39;3.92;;;2.22;;
47161;SDS011;32921;53.256;8.198;2022-07-12T01:40:07;3.10;;;2.35;;
47161;SDS011;32921;53.256;8.198;2022-07-12T01:42:35;4.80;;;2.22;;
47161;SDS011;32921;53.256;8.198;2022-07-12T01:45:01;4.28;;;2.47;;
47161;SDS011;32921;53.256;8.198;2022-07-12T01:47:30;5.22;;;3.20;;
47161;SDS011;32921;53.256;8.198;2022-07-12T01:49:56;4.57;;;2.70;;
47161;SDS011;32921;53.256;8.198;2022-07-12T01:52:23;4.80;;;3.03;;
47161;SDS011;32921;53.256;8.198;2022-07-12T01:54:49;4.47;;;2.70;;
47161;SDS011;32921;53.256;8.198;2022-07-12T01:57:15;3.72;;;2.80;;
47161;SDS011;32921;53.256;8.198;2022-07-12T01:59:41;5.88;;;2.90;;
47161;SDS011;32921;53.256;8.198;2022-07-12T02:02:07;5.35;;;2.92;;
47161;SDS011;32921;53.256;8.198;2022-07-12T02:04:34;5.85;;;2.85;;
47161;SDS011;32921;53.256;8.198;2022-07-12T02:07:00;3.30;;;2.35;;
47161;SDS011;32921;53.256;8.198;2022-07-12T02:09:26;3.47;;;2.35;;
47161;SDS011;32921;53.256;8.198;2022-07-12T02:11:52;4.93;;;2.25;;
47161;SDS011;32921;53.256;8.198;2022-07-12T02:14:18;4.95;;;2.30;;
47161;SDS011;32921;53.256;8.198;2022-07-12T02:16:44;5.32;;;2.47;;
47161;SDS011;32921;53.256;8.198;2022-07-12T02:19:10;4.28;;;2.50;;
47161;SDS011;32921;53.256;8.198;2022-07-12T02:21:37;3.33;;;2.08;;
47161;SDS011;32921;53.256;8.198;2022-07-12T02:24:03;3.15;;;2.20;;
47161;SDS011;32921;53.256;8.198;2022-07-12T02:26:29;4.07;;;2.40;;
47161;SDS011;32921;53.256;8.198;2022-07-12T02:28:57;4.05;;;2.13;;
47161;SDS011;32921;53.256;8.198;2022-07-12T02:31:22;4.00;;;2.13;;
47161;SDS011;32921;53.256;8.198;2022-07-12T02:33:48;3.58;;;2.42;;
47161;SDS011;32921;53.256;8.198;2022-07-12T02:36:13;3.17;;;2.70;;
47161;SDS011;32921;53.256;8.198;2022-07-12T02:38:39;3.30;;;2.40;;
47161;SDS011;32921;53.256;8.198;2022-07-12T02:41:05;3.95;;;2.92;;
47161;SDS011;32921;53.256;8.198;2022-07-12T02:43:30;3.95;;;2.70;;
47161;SDS011;32921;53.256;8.198;2022-07-12T02:46:29;4.70;;;2.78;;
47161;SDS011;32921;53.256;8.198;2022-07-12T02:48:49;3.75;;;2.65;;
47161;SDS011;32921;53.256;8.198;2022-07-12T02:51:17;4.45;;;2.30;;
47161;SDS011;32921;53.256;8.198;2022-07-12T02:53:43;4.63;;;2.67;;
47161;SDS011;32921;53.256;8.198;2022-07-12T02:56:09;6.10;;;3.08;;
47161;SDS011;32921;53.256;8.198;2022-07-12T02:58:36;4.32;;;2.90;;
47161;SDS011;32921;53.256;8.198;2022-07-12T03:01:02;5.75;;;3.20;;
47161;SDS011;32921;53.256;8.198;2022-07-12T03:03:28;4.53;;;3.20;;
47161;SDS011;32921;53.256;8.198;2022-07-12T03:05:54;4.45;;;3.05;;
47161;SDS011;32921;53.256;8.198;2022-07-12T03:08:21;4.15;;;2.53;;
47161;SDS011;32921;53.256;8.198;2022-07-12T03:10:46;3.80;;;2.90;;
47161;SDS011;32921;53.256;8.198;2022-07-12T03:13:12;5.78;;;2.72;;
47161;SDS011;32921;53.256;8.198;2022-07-12T03:15:38;5.18;;;3.75;;
47161;SDS011;32921;53.256;8.198;2022-07-12T03:18:03;6.72;;;3.92;;
47161;SDS011;32921;53.256;8.198;2022-07-12T03:20:30;5.80;;;2.95;;
47161;SDS011;32921;53.256;8.198;2022-07-12T03:22:56;4.35;;;3.10;;
47161;SDS011;32921;53.256;8.198;2022-07-12T03:25:22;4.05;;;3.00;;
47161;SDS011;32921;53.256;8.198;2022-07-12T03:27:49;3.78;;;2.47;;
47161;SDS011;32921;53.256;8.198;2022-07-12T03:30:14;4.00;;;2.47;;
47161;SDS011;32921;53.256;8.198;2022-07-12T03:32:40;3.88;;;2.33;;
47161;SDS011;32921;53.256;8.198;2022-07-12T03:35:06;3.35;;;2.60;;
47161;SDS011;32921;53.256;8.198;2022-07-12T03:38:05;4.65;;;2.60;;
47161;SDS011;32921;53.256;8.198;2022-07-12T03:42:51;5.07;;;2.50;;
47161;SDS011;32921;53.256;8.198;2022-07-12T03:45:17;5.95;;;2.95;;
47161;SDS011;32921;53.256;8.198;2022-07-12T03:47:43;6.78;;;3.53;;
47161;SDS011;32921;53.256;8.198;2022-07-12T03:50:09;6.80;;;3.65;;
47161;SDS011;32921;53.256;8.198;2022-07-12T03:52:37;5.13;;;3.40;;
47161;SDS011;32921;53.256;8.198;2022-07-12T03:55:04;3.78;;;2.60;;
47161;SDS011;32921;53.256;8.198;2022-07-12T03:57:30;4.43;;;2.65;;
47161;SDS011;32921;53.256;8.198;2022-07-12T03:59:56;3.42;;;2.65;;
47161;SDS011;32921;53.256;8.198;2022-07-12T04:02:21;4.13;;;2.60;;
47161;SDS011;32921;53.256;8.198;2022-07-12T04:04:47;4.72;;;2.83;;
47161;SDS011;32921;53.256;8.198;2022-07-12T04:07:13;4.30;;;3.00;;
47161;SDS011;32921;53.256;8.198;2022-07-12T04:09:39;4.10;;;2.75;;
47161;SDS011;32921;53.256;8.198;2022-07-12T04:12:04;4.88;;;2.70;;
47161;SDS011;32921;53.256;8.198;2022-07-12T04:14:30;4.78;;;3.20;;
47161;SDS011;32921;53.256;8.198;2022-07-12T04:16:56;4.93;;;3.40;;
47161;SDS011;32921;53.256;8.198;2022-07-12T04:19:22;4.72;;;3.22;;
47161;SDS011;32921;53.256;8.198;2022-07-12T04:21:55;5.90;;;3.20;;
47161;SDS011;32921;53.256;8.198;2022-07-12T04:24:22;6.07;;;3.42;;
47161;SDS011;32921;53.256;8.198;2022-07-12T04:26:48;7.30;;;3.72;;
47161;SDS011;32921;53.256;8.198;2022-07-12T04:29:15;6.40;;;2.90;;
47161;SDS011;32921;53.256;8.198;2022-07-12T04:31:41;5.43;;;3.30;;
47161;SDS011;32921;53.256;8.198;2022-07-12T04:34:06;7.10;;;3.65;;
47161;SDS011;32921;53.256;8.198;2022-07-12T04:36:32;5.38;;;3.70;;
47161;SDS011;32921;53.256;8.198;2022-07-12T04:38:58;6.45;;;4.22;;
47161;SDS011;32921;53.256;8.198;2022-07-12T04:41:23;6.22;;;4.00;;
47161;SDS011;32921;53.256;8.198;2022-07-12T04:43:49;6.38;;;3.63;;
47161;SDS011;32921;53.256;8.198;2022-07-12T04:46:15;3.95;;;2.90;;
47161;SDS011;32921;53.256;8.198;2022-07-12T04:48:41;6.57;;;3.42;;
47161;SDS011;32921;53.256;8.198;2022-07-12T04:51:06;4.35;;;3.35;;
47161;SDS011;32921;53.256;8.198;2022-07-12T04:53:32;4.78;;;3.60;;
47161;SDS011;32921;53.256;8.198;2022-07-12T04:55:57;7.18;;;3.42;;
47161;SDS011;32921;53.256;8.198;2022-07-12T04:58:23;4.50;;;3.70;;
47161;SDS011;32921;53.256;8.198;2022-07-12T05:00:49;5.55;;;3.60;;
47161;SDS011;32921;53.256;8.198;2022-07-12T05:03:15;3.97;;;3.10;;
47161;SDS011;32921;53.256;8.198;2022-07-12T05:05:41;4.75;;;3.05;;
47161;SDS011;32921;53.256;8.198;2022-07-12T05:08:07;4.95;;;3.03;;
47161;SDS011;32921;53.256;8.198;2022-07-12T05:10:32;4.90;;;3.10;;
47161;SDS011;32921;53.256;8.198;2022-07-12T05:12:58;3.60;;;2.70;;
47161;SDS011;32921;53.256;8.198;2022-07-12T05:15:24;6.65;;;2.95;;
47161;SDS011;32921;53.256;8.198;2022-07-12T05:17:49;4.13;;;2.30;;
47161;SDS011;32921;53.256;8.198;2022-07-12T05:20:15;3.17;;;2.50;;
47161;SDS011;32921;53.256;8.198;2022-07-12T05:22:40;3.20;;;2.55;;
47161;SDS011;32921;53.256;8.198;2022-07-12T05:25:06;4.38;;;2.40;;
47161;SDS011;32921;53.256;8.198;2022-07-12T05:27:33;4.80;;;2.47;;
47161;SDS011;32921;53.256;8.198;2022-07-12T05:29:59;4.05;;;2.33;;
47161;SDS011;32921;53.256;8.198;2022-07-12T05:32:25;3.13;;;2.35;;
47161;SDS011;32921;53.256;8.198;2022-07-12T05:34:51;2.50;;;2.10;;
47161;SDS011;32921;53.256;8.198;2022-07-12T05:37:16;4.15;;;2.25;;
47161;SDS011;32921;53.256;8.198;2022-07-12T05:39:42;7.00;;;2.92;;
47161;SDS011;32921;53.256;8.198;2022-07-12T05:42:08;4.15;;;2.70;;
47161;SDS011;32921;53.256;8.198;2022-07-12T05:44:34;4.60;;;2.60;;
47161;SDS011;32921;53.256;8.198;2022-07-12T05:46:59;6.32;;;2.80;;
47161;SDS011;32921;53.256;8.198;2022-07-12T05:49:25;5.20;;;2.70;;
47161;SDS011;32921;53.256;8.198;2022-07-12T05:51:51;4.22;;;2.45;;
47161;SDS011;32921;53.256;8.198;2022-07-12T05:54:35;4.35;;;2.42;;
47161;SDS011;32921;53.256;8.198;2022-07-12T05:57:01;3.75;;;2.35;;
47161;SDS011;32921;53.256;8.198;2022-07-12T05:59:26;3.78;;;2.58;;
47161;SDS011;32921;53.256;8.198;2022-07-12T06:01:54;3.88;;;2.45;;
47161;SDS011;32921;53.256;8.198;2022-07-12T06:04:19;4.25;;;2.42;;
47161;SDS011;32921;53.256;8.198;2022-07-12T06:06:45;3.10;;;1.92;;
47161;SDS011;32921;53.256;8.198;2022-07-12T06:09:10;3.72;;;2.17;;
47161;SDS011;32921;53.256;8.198;2022-07-12T06:11:36;3.15;;;2.00;;
47161;SDS011;32921;53.256;8.198;2022-07-12T06:14:02;3.80;;;2.08;;
47161;SDS011;32921;53.256;8.198;2022-07-12T06:16:28;2.53;;;1.80;;
47161;SDS011;32921;53.256;8.198;2022-07-12T06:18:53;3.72;;;2.38;;
47161;SDS011;32921;53.256;8.198;2022-07-12T06:21:19;4.35;;;2.20;;
47161;SDS011;32921;53.256;8.198;2022-07-12T06:23:44;3.00;;;2.13;;
47161;SDS011;32921;53.256;8.198;2022-07-12T06:26:10;3.92;;;2.30;;
47161;SDS011;32921;53.256;8.198;2022-07-12T06:28:36;3.58;;;2.40;;
47161;SDS011;32921;53.256;8.198;2022-07-12T06:31:02;3.55;;;1.90;;
47161;SDS011;32921;53.256;8.198;2022-07-12T06:33:27;3.13;;;2.30;;
47161;SDS011;32921;53.256;8.198;2022-07-12T06:35:53;4.50;;;2.25;;
47161;SDS011;32921;53.256;8.198;2022-07-12T06:38:18;2.95;;;2.30;;
47161;SDS011;32921;53.256;8.198;2022-07-12T06:40:44;3.40;;;2.35;;
47161;SDS011;32921;53.256;8.198;2022-07-12T06:43:10;2.95;;;2.00;;
47161;SDS011;32921;53.256;8.198;2022-07-12T06:45:36;3.05;;;2.00;;
47161;SDS011;32921;53.256;8.198;2022-07-12T06:48:01;3.03;;;2.00;;
47161;SDS011;32921;53.256;8.198;2022-07-12T06:50:27;3.15;;;1.92;;
47161;SDS011;32921;53.256;8.198;2022-07-12T06:52:53;2.95;;;1.90;;
47161;SDS011;32921;53.256;8.198;2022-07-12T06:55:18;2.63;;;1.83;;
47161;SDS011;32921;53.256;8.198;2022-07-12T06:57:44;3.13;;;1.83;;
47161;SDS011;32921;53.256;8.198;2022-07-12T07:00:10;2.50;;;1.58;;
47161;SDS011;32921;53.256;8.198;2022-07-12T07:02:37;2.25;;;1.73;;
47161;SDS011;32921;53.256;8.198;2022-07-12T07:05:04;2.17;;;1.50;;
47161;SDS011;32921;53.256;8.198;2022-07-12T07:07:29;5.00;;;1.70;;
47161;SDS011;32921;53.256;8.198;2022-07-12T07:09:55;1.85;;;1.58;;
47161;SDS011;32921;53.256;8.198;2022-07-12T07:12:20;3.65;;;1.70;;
47161;SDS011;32921;53.256;8.198;2022-07-12T07:14:46;3.03;;;2.10;;
47161;SDS011;32921;53.256;8.198;2022-07-12T07:17:13;2.63;;;1.60;;
47161;SDS011;32921;53.256;8.198;2022-07-12T07:19:44;3.03;;;1.98;;
47161;SDS011;32921;53.256;8.198;2022-07-12T07:22:10;3.22;;;1.48;;
47161;SDS011;32921;53.256;8.198;2022-07-12T07:24:37;4.82;;;1.60;;
47161;SDS011;32921;53.256;8.198;2022-07-12T07:27:02;2.92;;;1.88;;
47161;SDS011;32921;53.256;8.198;2022-07-12T07:29:28;2.47;;;1.42;;
47161;SDS011;32921;53.256;8.198;2022-07-12T07:32:12;2.83;;;1.55;;
47161;SDS011;32921;53.256;8.198;2022-07-12T07:34:38;3.03;;;1.52;;
47161;SDS011;32921;53.256;8.198;2022-07-12T07:37:03;2.20;;;1.27;;
47161;SDS011;32921;53.256;8.198;2022-07-12T07:39:29;3.42;;;1.33;;
47161;SDS011;32921;53.256;8.198;2022-07-12T07:41:55;1.70;;;1.20;;
47161;SDS011;32921;53.256;8.198;2022-07-12T07:44:21;3.13;;;1.30;;
47161;SDS011;32921;53.256;8.198;2022-07-12T07:46:46;2.00;;;1.10;;
47161;SDS011;32921;53.256;8.198;2022-07-12T07:49:12;2.72;;;1.20;;
47161;SDS011;32921;53.256;8.198;2022-07-12T07:51:37;2.83;;;1.40;;
47161;SDS011;32921;53.256;8.198;2022-07-12T07:54:03;1.67;;;1.10;;
47161;SDS011;32921;53.256;8.198;2022-07-12T07:56:29;1.80;;;1.20;;
47161;SDS011;32921;53.256;8.198;2022-07-12T07:58:55;2.25;;;1.10;;
47161;SDS011;32921;53.256;8.198;2022-07-12T08:01:20;2.40;;;1.20;;
47161;SDS011;32921;53.256;8.198;2022-07-12T08:04:06;2.15;;;1.30;;
47161;SDS011;32921;53.256;8.198;2022-07-12T08:06:31;2.83;;;1.20;;
47161;SDS011;32921;53.256;8.198;2022-07-12T08:08:57;1.65;;;1.20;;
47161;SDS011;32921;53.256;8.198;2022-07-12T08:11:22;4.03;;;1.48;;
47161;SDS011;32921;53.256;8.198;2022-07-12T08:13:48;2.90;;;1.77;;
47161;SDS011;32921;53.256;8.198;2022-07-12T08:16:14;3.53;;;2.38;;
47161;SDS011;32921;53.256;8.198;2022-07-12T08:18:39;3.95;;;2.25;;
47161;SDS011;32921;53.256;8.198;2022-07-12T08:21:05;3.33;;;2.70;;
47161;SDS011;32921;53.256;8.198;2022-07-12T08:23:31;3.83;;;3.00;;
47161;SDS011;32921;53.256;8.198;2022-07-12T08:25:56;4.80;;;3.22;;
47161;SDS011;32921;53.256;8.198;2022-07-12T08:28:22;3.95;;;3.20;;
47161;SDS011;32921;53.256;8.198;2022-07-12T08:30:48;3.50;;;2.85;;
47161;SDS011;32921;53.256;8.198;2022-07-12T08:33:13;7.05;;;3.35;;
47161;SDS011;32921;53.256;8.198;2022-07-12T08:35:39;3.90;;;3.03;;
47161;SDS011;32921;53.256;8.198;2022-07-12T08:38:05;5.07;;;3.42;;
47161;SDS011;32921;53.256;8.198;2022-07-12T08:40:31;4.13;;;3.00;;
47161;SDS011;32921;53.256;8.198;2022-07-12T08:42:57;4.50;;;3.00;;
47161;SDS011;32921;53.256;8.198;2022-07-12T08:45:22;4.75;;;2.88;;
47161;SDS011;32921;53.256;8.198;2022-07-12T08:47:48;3.88;;;2.80;;
47161;SDS011;32921;53.256;8.198;2022-07-12T08:50:20;4.80;;;2.40;;
47161;SDS011;32921;53.256;8.198;2022-07-12T08:52:49;2.40;;;2.05;;
47161;SDS011;32921;53.256;8.198;2022-07-12T08:55:32;2.70;;;1.88;;
47161;SDS011;32921;53.256;8.198;2022-07-12T08:58:03;4.13;;;2.25;;
47161;SDS011;32921;53.256;8.198;2022-07-12T09:00:32;3.45;;;2.00;;
47161;SDS011;32921;53.256;8.198;2022-07-12T09:03:00;2.67;;;2.17;;
47161;SDS011;32921;53.256;8.198;2022-07-12T09:05:28;2.72;;;1.77;;
47161;SDS011;32921;53.256;8.198;2022-07-12T09:08:07;3.75;;;1.67;;
47161;SDS011;32921;53.256;8.198;2022-07-12T09:10:34;4.60;;;1.83;;
47161;SDS011;32921;53.256;8.198;2022-07-12T09:13:15;3.00;;;1.60;;
47161;SDS011;32921;53.256;8.198;2022-07-12T09:15:41;2.03;;;1.30;;
47161;SDS011;32921;53.256;8.198;2022-07-12T09:18:07;1.98;;;1.50;;
47161;SDS011;32921;53.256;8.198;2022-07-12T09:20:38;3.20;;;1.45;;
47161;SDS011;32921;53.256;8.198;2022-07-12T09:23:06;2.00;;;1.40;;
47161;SDS011;32921;53.256;8.198;2022-07-12T09:25:33;3.72;;;1.40;;
47161;SDS011;32921;53.256;8.198;2022-07-12T09:28:03;4.78;;;1.42;;
47161;SDS011;32921;53.256;8.198;2022-07-12T09:30:30;1.63;;;1.10;;
47161;SDS011;32921;53.256;8.198;2022-07-12T09:32:57;2.72;;;1.20;;
47161;SDS011;32921;53.256;8.198;2022-07-12T09:35:43;1.80;;;1.30;;
47161;SDS011;32921;53.256;8.198;2022-07-12T09:38:52;2.10;;;1.60;;
47161;SDS011;32921;53.256;8.198;2022-07-12T09:41:19;7.25;;;1.88;;
47161;SDS011;32921;53.256;8.198;2022-07-12T09:43:46;2.22;;;1.85;;
47161;SDS011;32921;53.256;8.198;2022-07-12T09:46:15;4.28;;;1.80;;
47161;SDS011;32921;53.256;8.198;2022-07-12T09:48:41;3.83;;;1.35;;
47161;SDS011;32921;53.256;8.198;2022-07-12T09:51:10;2.67;;;1.38;;
47161;SDS011;32921;53.256;8.198;2022-07-12T09:53:46;2.00;;;1.13;;
47161;SDS011;32921;53.256;8.198;2022-07-12T09:56:13;1.70;;;1.35;;
47161;SDS011;32921;53.256;8.198;2022-07-12T10:01:16;3.00;;;1.20;;
47161;SDS011;32921;53.256;8.198;2022-07-12T10:03:43;1.30;;;1.00;;
47161;SDS011;32921;53.256;8.198;2022-07-12T10:06:09;3.47;;;1.00;;
47161;SDS011;32921;53.256;8.198;2022-07-12T10:08:37;1.90;;;0.82;;
47161;SDS011;32921;53.256;8.198;2022-07-12T10:11:03;1.75;;;0.70;;
47161;SDS011;32921;53.256;8.198;2022-07-12T10:13:30;0.98;;;0.63;;
47161;SDS011;32921;53.256;8.198;2022-07-12T10:15:57;1.08;;;0.50;;
47161;SDS011;32921;53.256;8.198;2022-07-12T10:18:25;4.97;;;0.60;;
47161;SDS011;32921;53.256;8.198;2022-07-12T10:20:51;2.75;;;0.75;;
47161;SDS011;32921;53.256;8.198;2022-07-12T10:25:42;1.92;;;0.70;;
47161;SDS011;32921;53.256;8.198;2022-07-12T10:28:08;1.02;;;0.43;;
47161;SDS011;32921;53.256;8.198;2022-07-12T10:30:47;1.05;;;0.47;;
47161;SDS011;32921;53.256;8.198;2022-07-12T10:33:15;1.15;;;0.50;;
47161;SDS011;32921;53.256;8.198;2022-07-12T10:36:01;0.77;;;0.40;;
47161;SDS011;32921;53.256;8.198;2022-07-12T10:38:29;2.20;;;0.70;;
47161;SDS011;32921;53.256;8.198;2022-07-12T10:40:55;1.55;;;0.60;;
47161;SDS011;32921;53.256;8.198;2022-07-12T10:43:21;1.02;;;0.50;;
47161;SDS011;32921;53.256;8.198;2022-07-12T10:46:19;2.80;;;0.50;;
47161;SDS011;32921;53.256;8.198;2022-07-12T10:48:48;1.60;;;0.50;;
47161;SDS011;32921;53.256;8.198;2022-07-12T10:51:15;2.55;;;0.80;;
47161;SDS011;32921;53.256;8.198;2022-07-12T10:53:41;2.22;;;0.60;;
47161;SDS011;32921;53.256;8.198;2022-07-12T10:56:15;1.20;;;0.73;;
47161;SDS011;32921;53.256;8.198;2022-07-12T10:58:53;0.63;;;0.50;;
47161;SDS011;32921;53.256;8.198;2022-07-12T11:01:30;2.80;;;0.40;;
47161;SDS011;32921;53.256;8.198;2022-07-12T11:04:03;1.05;;;0.60;;
47161;SDS011;32921;53.256;8.198;2022-07-12T11:06:36;1.95;;;0.73;;
47161;SDS011;32921;53.256;8.198;2022-07-12T11:09:07;1.05;;;0.50;;
47161;SDS011;32921;53.256;8.198;2022-07-12T11:11:34;2.97;;;0.50;;
47161;SDS011;32921;53.256;8.198;2022-07-12T11:14:05;1.48;;;0.50;;
47161;SDS011;32921;53.256;8.198;2022-07-12T11:16:31;3.70;;;0.60;;
47161;SDS011;32921;53.256;8.198;2022-07-12T11:18:58;2.35;;;0.90;;
47161;SDS011;32921;53.256;8.198;2022-07-12T11:21:23;1.05;;;0.73;;
47161;SDS011;32921;53.256;8.198;2022-07-12T11:23:49;1.92;;;0.57;;
47161;SDS011;32921;53.256;8.198;2022-07-12T11:26:16;3.58;;;0.90;;
47161;SDS011;32921;53.256;8.198;2022-07-12T11:28:42;0.75;;;0.47;;
47161;SDS011;32921;53.256;8.198;2022-07-12T11:31:11;5.68;;;0.50;;
47161;SDS011;32921;53.256;8.198;2022-07-12T11:33:39;1.23;;;0.65;;
47161;SDS011;32921;53.256;8.198;2022-07-12T11:36:06;3.20;;;0.50;;
47161;SDS011;32921;53.256;8.198;2022-07-12T11:38:35;1.88;;;0.40;;
47161;SDS011;32921;53.256;8.198;2022-07-12T11:41:02;1.70;;;0.32;;
47161;SDS011;32921;53.256;8.198;2022-07-12T11:43:29;2.00;;;0.38;;
47161;SDS011;32921;53.256;8.198;2022-07-12T11:45:56;2.13;;;0.40;;
47161;SDS011;32921;53.256;8.198;2022-07-12T11:48:23;1.50;;;0.20;;
47161;SDS011;32921;53.256;8.198;2022-07-12T11:50:52;0.80;;;0.20;;
47161;SDS011;32921;53.256;8.198;2022-07-12T11:55:53;1.33;;;0.20;;
47161;SDS011;32921;53.256;8.198;2022-07-12T11:58:23;1.50;;;0.40;;
47161;SDS011;32921;53.256;8.198;2022-07-12T12:00:50;0.43;;;0.20;;
47161;SDS011;32921;53.256;8.198;2022-07-12T12:03:18;2.72;;;0.88;;
47161;SDS011;32921;53.256;8.198;2022-07-12T12:05:45;2.35;;;0.30;;
47161;SDS011;32921;53.256;8.198;2022-07-12T12:08:12;0.55;;;0.10;;
47161;SDS011;32921;53.256;8.198;2022-07-12T12:10:42;0.80;;;0.10;;
47161;SDS011;32921;53.256;8.198;2022-07-12T12:13:17;0.65;;;0.10;;
47161;SDS011;32921;53.256;8.198;2022-07-12T12:15:56;1.98;;;0.10;;
47161;SDS011;32921;53.256;8.198;2022-07-12T12:18:29;1.52;;;0.30;;
47161;SDS011;32921;53.256;8.198;2022-07-12T12:20:57;0.10;;;0.10;;
47161;SDS011;32921;53.256;8.198;2022-07-12T12:23:23;0.30;;;0.10;;
47161;SDS011;32921;53.256;8.198;2022-07-12T12:25:49;0.85;;;0.13;;
47161;SDS011;32921;53.256;8.198;2022-07-12T12:28:15;1.33;;;0.30;;
47161;SDS011;32921;53.256;8.198;2022-07-12T12:30:53;0.55;;;0.10;;
47161;SDS011;32921;53.256;8.198;2022-07-12T12:36:38;1.02;;;0.20;;
47161;SDS011;32921;53.256;8.198;2022-07-12T12:39:02;1.88;;;0.20;;
47161;SDS011;32921;53.256;8.198;2022-07-12T12:41:29;1.00;;;0.35;;
47161;SDS011;32921;53.256;8.198;2022-07-12T12:44:03;1.15;;;0.30;;
47161;SDS011;32921;53.256;8.198;2022-07-12T12:47:12;2.28;;;0.20;;
47161;SDS011;32921;53.256;8.198;2022-07-12T12:49:48;1.02;;;0.22;;
47161;SDS011;32921;53.256;8.198;2022-07-12T12:52:16;1.83;;;0.20;;
47161;SDS011;32921;53.256;8.198;2022-07-12T12:54:42;1.10;;;0.17;;
47161;SDS011;32921;53.256;8.198;2022-07-12T12:57:08;1.33;;;0.20;;
47161;SDS011;32921;53.256;8.198;2022-07-12T12:59:34;2.67;;;0.20;;
47161;SDS011;32921;53.256;8.198;2022-07-12T13:02:01;2.85;;;0.30;;
47161;SDS011;32921;53.256;8.198;2022-07-12T13:04:28;0.57;;;0.20;;
47161;SDS011;32921;53.256;8.198;2022-07-12T13:06:55;0.63;;;0.20;;
47161;SDS011;32921;53.256;8.198;2022-07-12T13:09:21;3.53;;;0.20;;
47161;SDS011;32921;53.256;8.198;2022-07-12T13:11:47;0.75;;;0.32;;
47161;SDS011;32921;53.256;8.198;2022-07-12T13:14:13;1.38;;;0.20;;
47161;SDS011;32921;53.256;8.198;2022-07-12T13:16:38;1.30;;;0.20;;
47161;SDS011;32921;53.256;8.198;2022-07-12T13:19:05;0.80;;;0.35;;
47161;SDS011;32921;53.256;8.198;2022-07-12T13:21:30;1.10;;;0.38;;
47161;SDS011;32921;53.256;8.198;2022-07-12T13:23:56;0.30;;;0.20;;
47161;SDS011;32921;53.256;8.198;2022-07-12T13:26:22;1.10;;;0.20;;
47161;SDS011;32921;53.256;8.198;2022-07-12T13:28:47;0.20;;;0.20;;
47161;SDS011;32921;53.256;8.198;2022-07-12T13:31:13;0.88;;;0.35;;
47161;SDS011;32921;53.256;8.198;2022-07-12T13:33:38;0.60;;;0.30;;
47161;SDS011;32921;53.256;8.198;2022-07-12T13:36:04;0.43;;;0.25;;
47161;SDS011;32921;53.256;8.198;2022-07-12T13:38:30;0.52;;;0.40;;
47161;SDS011;32921;53.256;8.198;2022-07-12T13:40:55;0.73;;;0.22;;
47161;SDS011;32921;53.256;8.198;2022-07-12T13:43:21;0.70;;;0.32;;
47161;SDS011;32921;53.256;8.198;2022-07-12T13:45:49;0.32;;;0.20;;
47161;SDS011;32921;53.256;8.198;2022-07-12T13:48:15;0.50;;;0.30;;
47161;SDS011;32921;53.256;8.198;2022-07-12T13:50:43;0.32;;;0.32;;
47161;SDS011;32921;53.256;8.198;2022-07-12T13:53:08;1.10;;;0.30;;
47161;SDS011;32921;53.256;8.198;2022-07-12T13:55:34;1.05;;;0.40;;
47161;SDS011;32921;53.256;8.198;2022-07-12T13:58:00;0.50;;;0.40;;
47161;SDS011;32921;53.256;8.198;2022-07-12T14:00:26;1.52;;;0.40;;
47161;SDS011;32921;53.256;8.198;2022-07-12T14:02:51;1.02;;;0.35;;
47161;SDS011;32921;53.256;8.198;2022-07-12T14:05:17;1.10;;;0.30;;
47161;SDS011;32921;53.256;8.198;2022-07-12T14:07:45;0.85;;;0.45;;
47161;SDS011;32921;53.256;8.198;2022-07-12T14:10:11;1.17;;;0.50;;
47161;SDS011;32921;53.256;8.198;2022-07-12T14:12:38;1.25;;;0.50;;
47161;SDS011;32921;53.256;8.198;2022-07-12T14:15:04;0.70;;;0.50;;
47161;SDS011;32921;53.256;8.198;2022-07-12T14:17:36;0.80;;;0.47;;
47161;SDS011;32921;53.256;8.198;2022-07-12T14:20:07;1.27;;;0.60;;
47161;SDS011;32921;53.256;8.198;2022-07-12T14:22:34;0.52;;;0.50;;
47161;SDS011;32921;53.256;8.198;2022-07-12T14:25:00;1.33;;;0.50;;
47161;SDS011;32921;53.256;8.198;2022-07-12T14:27:25;1.10;;;0.75;;
47161;SDS011;32921;53.256;8.198;2022-07-12T14:29:51;2.25;;;0.80;;
47161;SDS011;32921;53.256;8.198;2022-07-12T14:32:17;0.90;;;0.70;;
47161;SDS011;32921;53.256;8.198;2022-07-12T14:34:42;1.90;;;0.90;;
47161;SDS011;32921;53.256;8.198;2022-07-12T14:37:08;2.22;;;0.90;;
47161;SDS011;32921;53.256;8.198;2022-07-12T14:39:34;2.05;;;0.80;;
47161;SDS011;32921;53.256;8.198;2022-07-12T14:42:00;3.35;;;0.70;;
47161;SDS011;32921;53.256;8.198;2022-07-12T14:44:26;1.77;;;0.80;;
47161;SDS011;32921;53.256;8.198;2022-07-12T14:46:52;1.30;;;0.90;;
47161;SDS011;32921;53.256;8.198;2022-07-12T14:49:18;1.20;;;0.98;;
47161;SDS011;32921;53.256;8.198;2022-07-12T14:51:45;1.17;;;0.90;;
47161;SDS011;32921;53.256;8.198;2022-07-12T14:54:11;1.25;;;0.85;;
47161;SDS011;32921;53.256;8.198;2022-07-12T14:56:36;2.05;;;0.90;;
47161;SDS011;32921;53.256;8.198;2022-07-12T14:59:02;1.52;;;1.00;;
47161;SDS011;32921;53.256;8.198;2022-07-12T15:01:28;1.50;;;0.80;;
47161;SDS011;32921;53.256;8.198;2022-07-12T15:03:53;1.58;;;0.75;;